Main page
Satellite images 15-day forecastsClimateMarine weather Cyclones Lightning AirportsFAQ Newsletter About
Weather : Europe Africa North America South America Asia Australia-Oceania Others
Languages Contact

London-Southend, England

latitude: 51-34N, longitude: 000-42E, elevation: 15 m


METAR: EGMC 030150Z 35002KT 0100 R24/0100 FG NSC 12/11 Q1023
short-TAF: EGMC 030004Z 0300/0309 05005KT 0300 FG BKN001 TEMPO 0300/0304 2000 BR SCT004 BECMG 0304/0307 6000 NSW FEW012
long-TAF: out of date (410 hours)

Time: 03:05 (02:05 UTC)

Current weather observation

The report was made 15 minutes ago, at 01:50 UTC  
Wind 02 kt from the North
Temperature 12°C
Humidity 94%
Pressure 1023 hPa
Visibility 0100 m
fog

Change units

Forecast

The report was made 1 hour and 58 minutes ago, at 00:07 UTC  
Forecast valid from 03 at 00 UTC to 03 at 09 UTC
Wind 05 kt from the Northeast
Visibility 0300 m
Broken clouds at a height of 100 ft
fog
Temporary
from 03 at 00 UTC to 03 at 04 UTC
Visibility 2000 m
Scattered clouds at a height of 400 ft
mist
Becoming
from 03 at 04 UTC to 03 at 07 UTC
Visibility 6000 m
Few clouds at a height of 1200 ft
The information on this site is subject to a disclaimer
Weather : Europe Africa North America South America Asia Australia-Oceania Others
Satellite images 15-day forecastsClimateMarine weather Cyclones Lightning AirportsFAQ Languages Contact Newsletter About